Time;durP1;ratioP1;P1;durP2;ratioP2;P2;SDS_P1;SDS_P2;PMS_P1;PMS_P2;Temp;Humidity;BMP_temperature;BMP_pressure;BME280_temperature;BME280_humidity;BME280_pressure;Samples;Min_cycle;Max_cycle;Signal;HPM_P1;HPM_P2
2022/12/30 00:01:42;;;;;;;;;;;;;;;17.55;47.86;101679.41;5077108;28;1070;-47
2022/12/30 00:04:08;;;;;;;;;;;;;;;17.25;47.26;101690.88;5077357;28;1062;-47
2022/12/30 00:06:33;;;;;;;;;;;;;;;17.07;46.18;101697.53;5095332;28;1189;-47
2022/12/30 00:08:59;;;;;;;;;;;;;;;18.39;47.22;101690.97;5085460;28;1906;-48
2022/12/30 00:11:31;;;;;;;;;;;;;;;17.33;48.27;101689.63;5095131;28;1237;-48
2022/12/30 00:33:51;;;;;;;;;;;;;;;17.18;46.82;101687.50;5095827;28;1047;-49
2022/12/30 00:36:17;;;;;;;;;;;;;;;18.21;47.38;101677.59;5096147;28;1560;-47
2022/12/30 00:38:42;;;;;;;;;;;;;;;17.24;47.87;101686.50;5093843;28;1034;-45
2022/12/30 00:43:52;;;;;;;;;;;;;;;17.86;47.87;101696.25;5096276;28;1085;-46
2022/12/30 00:46:18;;;;;;;;;;;;;;;17.32;47.39;101683.28;5096054;28;1022;-48
2022/12/30 00:56:56;;;;;;;;;;;;;;;18.29;47.19;101690.91;5094543;28;1137;-45
2022/12/30 00:59:21;;;;;;;;;;;;;;;18.22;47.25;101693.03;5085142;28;1142;-43
2022/12/30 01:01:46;;;;;;;;;;;;;;;17.31;47.84;101687.13;5080066;28;1389;-47
2022/12/30 01:04:12;;;;;;;;;;;;;;;17.07;46.94;101695.63;5096191;28;1002;-47
2022/12/30 01:06:37;;;;;;;;;;;;;;;18.07;47.37;101683.53;5095987;28;1121;-45
2022/12/30 01:09:03;;;;;;;;;;;;;;;17.19;48.12;101700.16;5085590;28;1914;-45
2022/12/30 01:11:28;;;;;;;;;;;;;;;18.16;47.31;101691.31;5087927;28;1031;-48
2022/12/30 01:13:54;;;;;;;;;;;;;;;17.77;47.93;101703.31;5079594;28;1147;-47
2022/12/30 01:16:19;;;;;;;;;;;;;;;17.22;47.61;101694.16;5091302;28;1066;-46
2022/12/30 01:18:44;;;;;;;;;;;;;;;16.95;46.98;101694.91;5085287;28;1050;-46
2022/12/30 01:21:10;;;;;;;;;;;;;;;18.26;46.91;101692.25;5089548;28;1018;-47
2022/12/30 01:23:35;;;;;;;;;;;;;;;17.28;48.00;101688.47;5087098;28;822;-48
2022/12/30 01:26:04;;;;;;;;;;;;;;;18.17;47.30;101687.47;5096066;28;1293;-47
2022/12/30 01:28:30;;;;;;;;;;;;;;;17.88;47.64;101684.97;5085699;28;1181;-46
2022/12/30 01:30:56;;;;;;;;;;;;;;;17.20;47.77;101677.09;5089569;28;1921;-47
2022/12/30 01:33:21;;;;;;;;;;;;;;;17.12;47.34;101669.28;5087077;28;1068;-45
2022/12/30 01:35:47;;;;;;;;;;;;;;;17.81;47.53;101667.84;5095688;28;1018;-48
2022/12/30 01:38:12;;;;;;;;;;;;;;;17.10;48.39;101664.88;5096264;28;1042;-48
2022/12/30 01:40:38;;;;;;;;;;;;;;;18.99;45.72;101660.50;5091498;28;1078;-48
2022/12/30 01:43:04;;;;;;;;;;;;;;;17.80;47.68;101661.53;5086679;28;967;-46
2022/12/30 01:45:29;;;;;;;;;;;;;;;17.19;47.77;101661.69;5095558;28;1006;-48
2022/12/30 01:48:04;;;;;;;;;;;;;;;17.09;46.43;101674.19;5078397;28;1309;-48
2022/12/30 01:50:35;;;;;;;;;;;;;;;18.09;47.16;101666.75;5087596;28;1980;-46
2022/12/30 01:53:01;;;;;;;;;;;;;;;17.35;47.89;101660.78;5076477;28;984;-46
2022/12/30 01:55:28;;;;;;;;;;;;;;;16.99;47.42;101662.25;5096130;28;1062;-42
2022/12/30 01:57:54;;;;;;;;;;;;;;;18.11;46.98;101659.91;5085891;28;1185;-43
2022/12/30 02:00:19;;;;;;;;;;;;;;;17.12;48.18;101661.88;5088843;28;1142;-45
2022/12/30 02:02:45;;;;;;;;;;;;;;;18.67;46.32;101657.84;5079218;28;1184;-46
2022/12/30 02:05:10;;;;;;;;;;;;;;;18.16;47.03;101652.78;5088807;28;864;-47
2022/12/30 02:07:40;;;;;;;;;;;;;;;17.39;47.50;101645.44;5094517;28;1118;-45
2022/12/30 02:10:05;;;;;;;;;;;;;;;17.06;46.88;101652.72;5099688;28;1987;-46
2022/12/30 02:12:31;;;;;;;;;;;;;;;17.83;47.65;101649.19;5084504;28;1079;-47
2022/12/30 02:14:56;;;;;;;;;;;;;;;17.15;47.79;101649.53;5094062;28;1161;-48
2022/12/30 02:17:28;;;;;;;;;;;;;;;16.92;46.70;101637.72;5080891;28;1239;-46
2022/12/30 02:20:09;;;;;;;;;;;;;;;17.95;47.66;101641.63;5095088;28;944;-45
2022/12/30 02:22:34;;;;;;;;;;;;;;;17.13;48.11;101635.22;5098412;28;1036;-48
2022/12/30 02:25:08;;;;;;;;;;;;;;;18.01;47.39;101637.00;5095795;28;925;-44
2022/12/30 02:27:51;;;;;;;;;;;;;;;18.04;47.48;101634.53;5084772;28;1103;-49
2022/12/30 02:30:20;;;;;;;;;;;;;;;17.19;47.69;101628.69;5092301;28;2008;-46
2022/12/30 02:33:04;;;;;;;;;;;;;;;18.06;47.48;101624.09;5085357;28;1110;-48
2022/12/30 02:35:36;;;;;;;;;;;;;;;17.04;48.21;101632.94;5088860;28;1030;-46
2022/12/30 02:38:20;;;;;;;;;;;;;;;17.56;48.38;101628.84;5099140;28;1030;-46
2022/12/30 02:46:34;;;;;;;;;;;;;;;17.84;47.79;101634.31;5098586;28;1062;-45
2022/12/30 02:49:00;;;;;;;;;;;;;;;17.07;48.01;101628.84;5097590;28;1074;-47
2022/12/30 02:54:12;;;;;;;;;;;;;;;18.08;47.26;101619.16;5088087;28;1021;-44
2022/12/30 02:56:46;;;;;;;;;;;;;;;17.36;47.48;101636.84;5098086;28;1086;-47
2022/12/30 03:04:58;;;;;;;;;;;;;;;17.03;47.72;101634.00;5089653;28;1126;-45
2022/12/30 03:07:29;;;;;;;;;;;;;;;17.48;47.78;101631.22;5103973;28;1091;-47
2022/12/30 03:12:49;;;;;;;;;;;;;;;18.64;45.97;101628.91;5098004;28;1065;-44
2022/12/30 03:15:16;;;;;;;;;;;;;;;17.23;48.24;101638.91;5086033;28;1162;-47
2022/12/30 03:17:41;;;;;;;;;;;;;;;17.04;47.72;101632.09;5096421;28;1081;-46
2022/12/30 03:20:08;;;;;;;;;;;;;;;17.44;47.95;101637.22;5101944;28;1067;-45
2022/12/30 03:28:02;;;;;;;;;;;;;;;17.38;47.93;101642.94;5096722;28;1091;-42
2022/12/30 03:30:27;;;;;;;;;;;;;;;17.13;47.06;101640.72;5095951;28;1909;-42
2022/12/30 03:32:53;;;;;;;;;;;;;;;17.01;47.07;101644.44;5089992;28;1115;-46
2022/12/30 03:35:18;;;;;;;;;;;;;;;17.89;47.47;101642.63;5106963;28;1172;-45
2022/12/30 03:37:50;;;;;;;;;;;;;;;17.05;47.96;101651.06;5089837;28;1011;-45
2022/12/30 03:40:20;;;;;;;;;;;;;;;18.79;45.92;101642.75;5095424;28;1260;-46
2022/12/30 03:42:45;;;;;;;;;;;;;;;17.66;47.42;101643.78;5101036;28;882;-43
2022/12/30 03:45:11;;;;;;;;;;;;;;;17.47;48.34;101643.31;5097341;28;1031;-45
2022/12/30 03:47:36;;;;;;;;;;;;;;;18.35;46.51;101644.97;5097470;28;1170;-47
2022/12/30 03:50:02;;;;;;;;;;;;;;;17.43;47.30;101648.47;5096018;28;1906;-45
2022/12/30 03:52:27;;;;;;;;;;;;;;;17.06;47.29;101640.91;5085300;28;1221;-45
2022/12/30 03:54:53;;;;;;;;;;;;;;;18.22;46.82;101638.81;5095917;28;892;-47
2022/12/30 03:57:18;;;;;;;;;;;;;;;17.25;47.76;101646.91;5077180;28;1026;-43
2022/12/30 03:59:44;;;;;;;;;;;;;;;17.82;47.79;101650.25;5091062;28;1127;-47
2022/12/30 04:02:09;;;;;;;;;;;;;;;18.05;47.00;101652.72;5089489;28;1004;-44
2022/12/30 04:04:35;;;;;;;;;;;;;;;17.23;47.34;101651.84;5090461;28;1101;-45
2022/12/30 04:07:00;;;;;;;;;;;;;;;18.92;45.49;101655.25;5084782;28;916;-47
2022/12/30 04:09:26;;;;;;;;;;;;;;;17.67;47.68;101661.94;5082561;28;1975;-45
2022/12/30 04:11:51;;;;;;;;;;;;;;;17.26;47.13;101659.56;5084183;28;1475;-47
2022/12/30 04:14:17;;;;;;;;;;;;;;;17.02;46.53;101668.06;5094892;28;988;-47
2022/12/30 04:16:42;;;;;;;;;;;;;;;17.85;47.35;101663.50;5096955;28;1029;-50
2022/12/30 04:19:07;;;;;;;;;;;;;;;17.21;48.02;101670.53;5095772;28;888;-49
2022/12/30 04:21:33;;;;;;;;;;;;;;;19.11;45.22;101663.88;5096683;28;1133;-51
2022/12/30 04:23:58;;;;;;;;;;;;;;;17.89;47.15;101661.88;5097382;28;1050;-48
2022/12/30 04:26:24;;;;;;;;;;;;;;;17.26;47.18;101665.91;5089762;28;1196;-46
2022/12/30 04:28:49;;;;;;;;;;;;;;;18.45;46.56;101672.56;5090252;28;1094;-50
2022/12/30 04:31:15;;;;;;;;;;;;;;;17.36;47.52;101667.94;5096155;28;1992;-46
2022/12/30 04:33:40;;;;;;;;;;;;;;;17.07;46.92;101675.56;5090354;28;1495;-45
2022/12/30 04:36:06;;;;;;;;;;;;;;;17.01;46.22;101671.91;5077099;28;1122;-49
2022/12/30 04:38:31;;;;;;;;;;;;;;;18.11;46.59;101679.16;5084956;28;1249;-43
2022/12/30 04:40:56;;;;;;;;;;;;;;;17.13;47.62;101681.94;5087368;28;1243;-46
2022/12/30 04:43:22;;;;;;;;;;;;;;;16.84;46.99;101680.16;5095129;28;883;-45
2022/12/30 04:45:47;;;;;;;;;;;;;;;17.65;47.43;101675.94;5095464;28;1043;-48
2022/12/30 04:48:13;;;;;;;;;;;;;;;16.97;47.73;101669.91;5095124;28;1015;-48
2022/12/30 04:50:42;;;;;;;;;;;;;;;16.97;47.99;101681.75;5095477;28;1985;-49
2022/12/30 04:53:07;;;;;;;;;;;;;;;17.70;47.11;101678.75;5095708;28;1038;-48
2022/12/30 04:55:33;;;;;;;;;;;;;;;17.22;48.49;101684.00;5094940;28;847;-46
2022/12/30 04:57:58;;;;;;;;;;;;;;;19.08;45.05;101680.13;5096400;28;1058;-48
2022/12/30 05:00:23;;;;;;;;;;;;;;;17.87;47.09;101675.09;5096511;28;1154;-46
2022/12/30 05:02:49;;;;;;;;;;;;;;;17.22;47.25;101685.91;5096533;28;1051;-51
2022/12/30 05:05:14;;;;;;;;;;;;;;;18.20;47.02;101675.94;5096752;28;1053;-46
2022/12/30 05:07:40;;;;;;;;;;;;;;;17.26;47.99;101679.66;5095775;28;880;-48
2022/12/30 05:10:05;;;;;;;;;;;;;;;17.43;47.84;101676.81;5095915;28;1899;-46
2022/12/30 05:12:31;;;;;;;;;;;;;;;17.71;47.49;101683.19;5096638;28;1288;-46
2022/12/30 05:14:56;;;;;;;;;;;;;;;16.94;47.64;101682.25;5096287;28;1094;-44
2022/12/30 05:17:22;;;;;;;;;;;;;;;18.76;45.85;101668.09;5096361;28;1106;-47
2022/12/30 05:19:47;;;;;;;;;;;;;;;17.56;47.72;101677.53;5094497;28;963;-46
2022/12/30 05:22:12;;;;;;;;;;;;;;;17.17;47.15;101686.69;5096826;28;1206;-46
2022/12/30 05:27:22;;;;;;;;;;;;;;;17.06;47.63;101680.22;5096138;28;1051;-47
2022/12/30 05:29:47;;;;;;;;;;;;;;;17.89;47.24;101670.13;5094682;28;1975;-45
2022/12/30 05:32:12;;;;;;;;;;;;;;;17.66;47.62;101685.88;5098921;28;1065;-45
2022/12/30 05:34:38;;;;;;;;;;;;;;;17.03;47.58;101677.97;5100246;28;1063;-44
2022/12/30 05:37:03;;;;;;;;;;;;;;;18.37;46.45;101682.16;5100182;28;1170;-43
2022/12/30 05:39:29;;;;;;;;;;;;;;;17.26;47.68;101682.41;5099357;28;1094;-43
2022/12/30 05:41:54;;;;;;;;;;;;;;;17.92;47.36;101691.66;5099947;28;1066;-47
2022/12/30 05:44:20;;;;;;;;;;;;;;;17.98;46.87;101689.78;5100881;28;1138;-49
2022/12/30 05:46:45;;;;;;;;;;;;;;;17.13;47.48;101691.03;5099740;28;1118;-45
2022/12/30 05:49:11;;;;;;;;;;;;;;;18.32;46.54;101689.53;5099881;28;1906;-44
2022/12/30 05:51:36;;;;;;;;;;;;;;;17.41;47.30;101687.22;5100102;28;1140;-44
2022/12/30 05:54:01;;;;;;;;;;;;;;;17.43;47.90;101690.56;5099719;28;1114;-46
2022/12/30 05:56:27;;;;;;;;;;;;;;;18.07;46.69;101689.03;5099775;28;1166;-48
2022/12/30 05:58:52;;;;;;;;;;;;;;;17.23;47.48;101685.63;5099861;28;1470;-48
2022/12/30 06:01:18;;;;;;;;;;;;;;;17.25;47.59;101699.97;5099390;28;1023;-45
2022/12/30 06:03:43;;;;;;;;;;;;;;;17.88;47.07;101702.34;5099269;28;1081;-49
2022/12/30 06:06:09;;;;;;;;;;;;;;;17.14;47.60;101698.19;5098840;28;1148;-44
2022/12/30 06:08:34;;;;;;;;;;;;;;;17.77;47.53;101693.13;5099968;28;1026;-45
2022/12/30 06:11:00;;;;;;;;;;;;;;;17.47;47.57;101690.06;5098960;28;1898;-47
2022/12/30 06:13:25;;;;;;;;;;;;;;;17.82;47.52;101705.28;5096516;28;1185;-46
2022/12/30 06:15:50;;;;;;;;;;;;;;;19.10;44.50;101688.97;5092668;28;1066;-45
2022/12/30 06:18:16;;;;;;;;;;;;;;;17.62;47.01;101690.22;5098759;28;1157;-45
2022/12/30 06:20:42;;;;;;;;;;;;;;;17.22;47.41;101696.91;5099057;28;1093;-44
2022/12/30 06:23:08;;;;;;;;;;;;;;;17.76;47.27;101699.72;5099234;28;1120;-49
2022/12/30 06:25:33;;;;;;;;;;;;;;;18.25;46.08;101696.09;5099106;28;1182;-48
2022/12/30 06:27:59;;;;;;;;;;;;;;;17.64;47.69;101700.97;5099204;28;1117;-45
2022/12/30 06:30:24;;;;;;;;;;;;;;;17.17;48.83;101705.91;5094578;28;1909;-47
2022/12/30 06:32:50;;;;;;;;;;;;;;;16.90;49.21;101708.56;5098495;28;1102;-47
2022/12/30 06:35:15;;;;;;;;;;;;;;;16.66;49.59;101711.50;5099126;28;1380;-45
2022/12/30 06:37:40;;;;;;;;;;;;;;;16.49;49.98;101708.75;5099071;28;1125;-49
2022/12/30 06:40:06;;;;;;;;;;;;;;;16.32;50.55;101707.91;5098577;28;1211;-46
2022/12/30 06:42:32;;;;;;;;;;;;;;;16.18;50.78;101707.41;5098089;28;1122;-47
2022/12/30 06:44:58;;;;;;;;;;;;;;;16.03;50.72;101711.56;5099272;28;1144;-43
2022/12/30 06:47:24;;;;;;;;;;;;;;;15.91;51.11;101708.03;5098422;28;1110;-48
2022/12/30 06:49:50;;;;;;;;;;;;;;;15.79;51.39;101704.50;5098257;28;1976;-49
2022/12/30 06:52:15;;;;;;;;;;;;;;;15.69;51.14;101705.94;5092648;28;2571;-46
2022/12/30 06:54:41;;;;;;;;;;;;;;;15.60;51.45;101712.06;5097774;28;1026;-46
2022/12/30 06:57:06;;;;;;;;;;;;;;;16.72;49.07;101705.00;5092762;28;1050;-44
2022/12/30 06:59:32;;;;;;;;;;;;;;;16.55;49.69;101716.00;5090765;28;995;-45
2022/12/30 07:01:57;;;;;;;;;;;;;;;15.97;50.77;101707.03;5097606;28;1201;-49
2022/12/30 07:04:23;;;;;;;;;;;;;;;15.73;51.26;101715.34;5098333;28;1117;-46
2022/12/30 07:06:48;;;;;;;;;;;;;;;15.58;51.51;101712.31;5092629;28;1070;-45
2022/12/30 07:09:14;;;;;;;;;;;;;;;15.43;51.70;101712.00;5090193;28;1909;-47
2022/12/30 07:11:39;;;;;;;;;;;;;;;15.47;51.92;101718.66;5096982;28;1043;-44
2022/12/30 07:14:05;;;;;;;;;;;;;;;17.08;48.22;101716.53;5098195;28;1049;-48
2022/12/30 07:16:30;;;;;;;;;;;;;;;16.82;48.63;101720.78;5096724;28;1065;-42
2022/12/30 07:18:56;;;;;;;;;;;;;;;16.14;50.36;101719.97;5095249;28;1169;-45
2022/12/30 07:21:21;;;;;;;;;;;;;;;15.86;51.21;101721.66;5093380;28;1848;-44
2022/12/30 07:23:47;;;;;;;;;;;;;;;15.61;51.66;101724.69;5091622;28;1154;-44
2022/12/30 07:26:12;;;;;;;;;;;;;;;17.04;48.34;101718.13;5098175;28;1031;-46
2022/12/30 07:28:37;;;;;;;;;;;;;;;16.68;48.97;101731.28;5097637;28;1338;-45
2022/12/30 07:31:03;;;;;;;;;;;;;;;16.08;50.44;101719.84;5091344;28;1897;-45
2022/12/30 07:33:28;;;;;;;;;;;;;;;15.81;51.11;101727.88;5090113;28;979;-44
2022/12/30 07:35:54;;;;;;;;;;;;;;;15.66;51.36;101720.16;5097621;28;1202;-45
2022/12/30 07:38:19;;;;;;;;;;;;;;;17.29;47.33;101725.00;5097762;28;1030;-44
2022/12/30 07:40:44;;;;;;;;;;;;;;;16.44;49.13;101719.66;5097190;28;1128;-46
2022/12/30 07:43:10;;;;;;;;;;;;;;;15.96;50.44;101718.28;5085085;28;1126;-48
2022/12/30 07:45:35;;;;;;;;;;;;;;;15.71;51.12;101719.41;5082495;28;1103;-44
2022/12/30 07:48:01;;;;;;;;;;;;;;;16.21;50.30;101726.94;5097614;28;1038;-47
2022/12/30 07:50:26;;;;;;;;;;;;;;;17.17;47.59;101719.66;5097413;28;1906;-44
2022/12/30 07:52:52;;;;;;;;;;;;;;;16.25;49.77;101730.84;5083915;28;2292;-46
2022/12/30 07:55:17;;;;;;;;;;;;;;;15.93;50.79;101727.00;5090163;28;1226;-47
2022/12/30 07:57:43;;;;;;;;;;;;;;;15.71;51.09;101736.72;5090236;28;1105;-49
2022/12/30 08:00:09;;;;;;;;;;;;;;;16.56;49.31;101731.41;5096213;28;1082;-49
2022/12/30 08:02:40;;;;;;;;;;;;;;;17.28;47.01;101739.88;5096939;28;1219;-45
2022/12/30 08:05:06;;;;;;;;;;;;;;;16.27;49.66;101735.28;5084086;28;1122;-48
2022/12/30 08:07:33;;;;;;;;;;;;;;;15.91;50.48;101746.44;5096829;28;1083;-46
2022/12/30 08:09:58;;;;;;;;;;;;;;;15.68;51.17;101737.22;5083177;28;1974;-43
2022/12/30 08:12:23;;;;;;;;;;;;;;;15.54;51.49;101730.31;5096560;28;1054;-47
2022/12/30 08:14:49;;;;;;;;;;;;;;;16.12;50.26;101735.81;5096000;28;1083;-46
2022/12/30 08:17:14;;;;;;;;;;;;;;;17.31;47.04;101736.59;5095384;28;952;-43
2022/12/30 08:19:40;;;;;;;;;;;;;;;16.24;49.82;101733.84;5096128;28;1085;-43
2022/12/30 08:22:05;;;;;;;;;;;;;;;15.83;50.95;101733.94;5090424;28;2362;-44
2022/12/30 08:24:31;;;;;;;;;;;;;;;15.63;51.23;101737.09;5095030;28;1118;-42
2022/12/30 08:26:56;;;;;;;;;;;;;;;15.98;50.76;101741.63;5096856;28;1087;-44
2022/12/30 08:29:21;;;;;;;;;;;;;;;17.24;47.39;101734.03;5096578;28;1981;-42
2022/12/30 08:31:49;;;;;;;;;;;;;;;16.21;49.88;101737.09;5096181;28;999;-45
2022/12/30 08:34:18;;;;;;;;;;;;;;;15.83;50.94;101739.44;5096113;28;1165;-48
2022/12/30 08:36:44;;;;;;;;;;;;;;;15.67;51.14;101738.28;5096519;28;1061;-42
2022/12/30 08:39:09;;;;;;;;;;;;;;;15.92;50.85;101739.84;5096453;28;1091;-45
2022/12/30 08:41:35;;;;;;;;;;;;;;;17.16;47.42;101736.41;5096288;28;1101;-44
2022/12/30 08:44:01;;;;;;;;;;;;;;;16.18;49.80;101737.59;5096031;28;1034;-45
2022/12/30 08:46:27;;;;;;;;;;;;;;;15.83;50.84;101735.88;5095706;28;1030;-45
2022/12/30 08:48:52;;;;;;;;;;;;;;;16.01;50.39;101741.13;5095914;28;1081;-46
2022/12/30 08:51:18;;;;;;;;;;;;;;;17.45;46.64;101737.88;5096134;28;1974;-45
2022/12/30 08:53:44;;;;;;;;;;;;;;;16.39;49.17;101736.03;5094892;28;2886;-47
2022/12/30 08:56:14;;;;;;;;;;;;;;;15.95;50.57;101739.38;5095929;28;1078;-47
2022/12/30 08:58:39;;;;;;;;;;;;;;;15.72;51.25;101730.16;5095997;28;1065;-46
2022/12/30 09:01:12;;;;;;;;;;;;;;;15.58;51.19;101736.97;5095595;28;1069;-43
2022/12/30 09:03:37;;;;;;;;;;;;;;;16.41;49.67;101731.13;5082639;28;1079;-49
2022/12/30 09:06:03;;;;;;;;;;;;;;;16.84;47.94;101726.03;5095196;28;1069;-43
2022/12/30 09:08:29;;;;;;;;;;;;;;;16.04;50.13;101717.88;5096101;28;847;-47
2022/12/30 09:11:01;;;;;;;;;;;;;;;15.75;50.79;101717.84;5095652;28;1906;-43
2022/12/30 09:13:26;;;;;;;;;;;;;;;17.09;47.84;101715.41;5083473;28;1107;-46
2022/12/30 09:15:52;;;;;;;;;;;;;;;16.40;49.37;101710.25;5095526;28;1192;-47
2022/12/30 09:18:17;;;;;;;;;;;;;;;15.92;50.38;101704.19;5096057;28;1106;-45
2022/12/30 09:20:43;;;;;;;;;;;;;;;15.69;51.31;101700.47;5082011;28;1077;-46
2022/12/30 09:23:09;;;;;;;;;;;;;;;15.53;51.54;101693.84;5087527;28;2474;-47
2022/12/30 09:25:34;;;;;;;;;;;;;;;15.60;51.38;101692.88;5095864;28;1022;-46
2022/12/30 09:28:00;;;;;;;;;;;;;;;17.20;47.41;101696.34;5095765;28;1065;-49
2022/12/30 09:30:25;;;;;;;;;;;;;;;16.50;49.06;101698.59;5095839;28;1901;-43
2022/12/30 09:32:51;;;;;;;;;;;;;;;15.95;50.51;101698.25;5095703;28;896;-47
2022/12/30 09:35:16;;;;;;;;;;;;;;;15.71;51.19;101698.31;5095779;28;1018;-45
2022/12/30 09:37:42;;;;;;;;;;;;;;;15.52;51.44;101683.16;5095111;28;1189;-45
2022/12/30 09:40:09;;;;;;;;;;;;;;;16.60;48.87;101682.28;5095414;28;1072;-44
2022/12/30 09:45:41;;;;;;;;;;;;;;;16.01;50.37;101677.22;5094634;28;1338;-45
2022/12/30 09:48:06;;;;;;;;;;;;;;;15.70;51.25;101674.72;5095418;28;1766;-46
2022/12/30 09:50:39;;;;;;;;;;;;;;;15.49;51.56;101670.75;5093996;28;1914;-44
2022/12/30 09:53:05;;;;;;;;;;;;;;;16.55;49.30;101672.06;5094484;28;2547;-47
2022/12/30 09:55:31;;;;;;;;;;;;;;;17.20;46.94;101669.66;5089116;28;1026;-48
2022/12/30 09:58:02;;;;;;;;;;;;;;;16.19;49.92;101660.50;5094471;28;1119;-46
2022/12/30 10:00:28;;;;;;;;;;;;;;;15.87;50.57;101647.34;5095880;28;1099;-44
2022/12/30 10:03:00;;;;;;;;;;;;;;;15.65;50.99;101654.59;5094267;28;1170;-42
2022/12/30 10:05:34;;;;;;;;;;;;;;;16.83;48.44;101644.69;5095803;28;1070;-44
2022/12/30 10:08:20;;;;;;;;;;;;;;;16.60;48.80;101644.66;5095003;28;1086;-45
2022/12/30 10:11:04;;;;;;;;;;;;;;;15.98;50.33;101642.88;5095404;28;1909;-45
2022/12/30 10:13:30;;;;;;;;;;;;;;;15.73;51.23;101640.50;5083254;28;1042;-47
2022/12/30 10:15:56;;;;;;;;;;;;;;;15.55;51.43;101636.88;5095220;28;1157;-46
2022/12/30 10:18:24;;;;;;;;;;;;;;;16.37;49.67;101640.22;5096208;28;983;-45
2022/12/30 10:21:08;;;;;;;;;;;;;;;17.43;46.64;101645.72;5098970;28;1122;-45
2022/12/30 10:23:39;;;;;;;;;;;;;;;16.29;49.70;101639.81;5090802;28;2524;-45
2022/12/30 10:26:12;;;;;;;;;;;;;;;15.91;50.37;101643.03;5098929;28;1153;-43
2022/12/30 10:28:39;;;;;;;;;;;;;;;15.71;51.10;101635.25;5097511;28;1111;-42
2022/12/30 10:31:07;;;;;;;;;;;;;;;15.52;51.47;101631.88;5093259;28;1917;-48
2022/12/30 10:33:36;;;;;;;;;;;;;;;16.76;48.64;101634.72;5092032;28;837;-47
2022/12/30 10:36:21;;;;;;;;;;;;;;;16.74;48.29;101634.16;5098719;28;1046;-46
2022/12/30 10:38:46;;;;;;;;;;;;;;;15.97;50.54;101638.47;5097147;28;1066;-47
2022/12/30 10:41:12;;;;;;;;;;;;;;;15.72;51.05;101628.69;5098434;28;1042;-47
2022/12/30 10:43:49;;;;;;;;;;;;;;;16.51;49.36;101626.97;5098337;28;1026;-46
2022/12/30 10:46:18;;;;;;;;;;;;;;;17.40;46.71;101625.09;5098216;28;900;-46
2022/12/30 10:48:46;;;;;;;;;;;;;;;16.33;49.63;101617.09;5097595;28;1130;-46
2022/12/30 10:51:12;;;;;;;;;;;;;;;16.01;50.37;101611.38;5098280;28;1980;-49
2022/12/30 10:53:38;;;;;;;;;;;;;;;15.79;50.81;101617.59;5097236;28;2680;-46
2022/12/30 10:56:05;;;;;;;;;;;;;;;15.64;51.46;101609.91;5096873;28;976;-46
2022/12/30 10:58:44;;;;;;;;;;;;;;;16.07;50.35;101610.38;5097215;28;1133;-48
2022/12/30 11:01:20;;;;;;;;;;;;;;;17.49;46.78;101608.13;5098578;28;1069;-43
2022/12/30 11:03:50;;;;;;;;;;;;;;;16.36;49.36;101605.59;5084501;28;1145;-48
2022/12/30 11:06:21;;;;;;;;;;;;;;;15.95;50.42;101598.66;5098171;28;1101;-43
2022/12/30 11:08:47;;;;;;;;;;;;;;;15.76;51.16;101598.03;5097483;28;1015;-44
2022/12/30 11:11:13;;;;;;;;;;;;;;;17.21;47.38;101601.81;5097584;28;1910;-43
2022/12/30 11:16:23;;;;;;;;;;;;;;;15.98;50.30;101604.47;5098117;28;1058;-47
2022/12/30 11:18:49;;;;;;;;;;;;;;;15.81;50.89;101603.63;5096340;28;1089;-45
2022/12/30 11:21:22;;;;;;;;;;;;;;;15.67;51.20;101597.59;5096502;28;1182;-51
2022/12/30 11:23:48;;;;;;;;;;;;;;;16.29;49.91;101602.22;5088816;28;1343;-44
2022/12/30 11:26:17;;;;;;;;;;;;;;;17.34;47.16;101593.13;5096021;28;1253;-47
2022/12/30 11:28:43;;;;;;;;;;;;;;;16.31;49.57;101591.78;5096898;28;1105;-48
2022/12/30 11:31:10;;;;;;;;;;;;;;;15.96;50.52;101586.59;5096611;28;1913;-43
2022/12/30 11:33:36;;;;;;;;;;;;;;;15.73;51.02;101583.72;5095769;28;1047;-45
2022/12/30 11:36:13;;;;;;;;;;;;;;;16.55;49.33;101592.44;5097607;28;1049;-45
2022/12/30 11:38:39;;;;;;;;;;;;;;;16.90;47.89;101588.53;5097166;28;1026;-44
2022/12/30 11:41:18;;;;;;;;;;;;;;;16.15;49.93;101581.69;5096903;28;1264;-46
2022/12/30 11:43:43;;;;;;;;;;;;;;;15.87;50.72;101573.28;5097202;28;1106;-48
2022/12/30 11:46:10;;;;;;;;;;;;;;;15.68;51.19;101569.94;5097620;28;935;-46
2022/12/30 11:48:38;;;;;;;;;;;;;;;16.17;50.26;101568.53;5096034;28;1042;-44
2022/12/30 11:51:13;;;;;;;;;;;;;;;17.05;47.85;101565.88;5097096;28;1901;-46
2022/12/30 11:53:38;;;;;;;;;;;;;;;16.15;50.09;101559.75;5096728;28;2788;-44
2022/12/30 11:56:04;;;;;;;;;;;;;;;15.84;50.96;101564.75;5096205;28;1147;-46
2022/12/30 11:58:31;;;;;;;;;;;;;;;15.68;51.64;101558.13;5096837;28;1229;-45
2022/12/30 12:00:58;;;;;;;;;;;;;;;15.54;51.63;101563.94;5095589;28;1004;-45
2022/12/30 12:03:24;;;;;;;;;;;;;;;15.79;51.46;101564.63;5095550;28;1145;-45
2022/12/30 12:05:49;;;;;;;;;;;;;;;17.26;47.52;101555.97;5095748;28;1106;-47
2022/12/30 12:08:34;;;;;;;;;;;;;;;16.48;49.16;101571.72;5095082;28;1340;-47
2022/12/30 12:11:01;;;;;;;;;;;;;;;15.94;50.80;101562.16;5090983;28;1963;-46
2022/12/30 12:13:29;;;;;;;;;;;;;;;15.70;51.56;101565.03;5096487;28;1103;-50
2022/12/30 12:15:55;;;;;;;;;;;;;;;15.84;51.36;101562.84;5096102;28;1146;-48
2022/12/30 12:18:23;;;;;;;;;;;;;;;17.36;47.37;101552.50;5096578;28;1162;-42
2022/12/30 12:20:54;;;;;;;;;;;;;;;16.49;49.15;101557.75;5094546;28;961;-48
2022/12/30 12:23:19;;;;;;;;;;;;;;;16.01;50.48;101548.28;5088446;28;2671;-44
2022/12/30 12:25:51;;;;;;;;;;;;;;;15.76;51.29;101545.94;5096773;28;1041;-43
2022/12/30 12:28:17;;;;;;;;;;;;;;;15.63;51.71;101547.94;5097057;28;1158;-47
2022/12/30 12:30:50;;;;;;;;;;;;;;;15.96;50.74;101545.44;5096246;28;1898;-47
2022/12/30 12:33:15;;;;;;;;;;;;;;;17.36;47.41;101541.50;5096406;28;1128;-46
2022/12/30 12:35:41;;;;;;;;;;;;;;;16.37;49.87;101541.41;5096393;28;1045;-47
2022/12/30 12:38:06;;;;;;;;;;;;;;;15.96;50.75;101546.28;5096436;28;1054;-45
2022/12/30 12:40:35;;;;;;;;;;;;;;;15.74;51.29;101549.75;5095233;28;1418;-48
2022/12/30 12:43:14;;;;;;;;;;;;;;;15.59;51.57;101551.41;5095940;28;983;-46
2022/12/30 12:45:47;;;;;;;;;;;;;;;16.31;50.03;101536.91;5074906;28;852;-43
2022/12/30 12:48:28;;;;;;;;;;;;;;;17.33;47.25;101542.00;5106875;28;1022;-44
2022/12/30 12:51:12;;;;;;;;;;;;;;;16.29;50.00;101541.84;5095746;28;1985;-45
2022/12/30 12:53:40;;;;;;;;;;;;;;;15.88;50.90;101544.78;5083247;28;1780;-46
2022/12/30 12:56:24;;;;;;;;;;;;;;;15.70;51.27;101540.38;5096416;28;996;-46
2022/12/30 12:58:57;;;;;;;;;;;;;;;16.11;50.71;101542.13;5091761;28;817;-46
2022/12/30 13:01:29;;;;;;;;;;;;;;;17.40;47.21;101536.28;5095658;28;1034;-48
2022/12/30 13:03:54;;;;;;;;;;;;;;;16.37;49.72;101535.91;5094305;28;1026;-44
2022/12/30 13:06:25;;;;;;;;;;;;;;;15.98;50.85;101552.34;5096626;28;1166;-47
2022/12/30 13:08:54;;;;;;;;;;;;;;;15.75;51.25;101550.56;5094803;28;1054;-46
2022/12/30 13:11:40;;;;;;;;;;;;;;;16.04;50.94;101554.09;5095293;28;1897;-47
2022/12/30 13:14:05;;;;;;;;;;;;;;;17.04;48.01;101545.00;5094469;28;1064;-45
2022/12/30 13:16:41;;;;;;;;;;;;;;;16.17;50.28;101554.81;5096015;28;1221;-50
2022/12/30 13:19:10;;;;;;;;;;;;;;;15.86;51.04;101541.47;5094797;28;1190;-46
2022/12/30 13:21:36;;;;;;;;;;;;;;;15.68;51.51;101556.25;5093790;28;2253;-46
2022/12/30 13:24:05;;;;;;;;;;;;;;;15.52;52.04;101548.81;5094730;28;1155;-44
2022/12/30 13:26:30;;;;;;;;;;;;;;;16.93;48.59;101555.03;5095678;28;1074;-44
2022/12/30 13:28:56;;;;;;;;;;;;;;;16.72;48.87;101558.59;5094752;28;1127;-44
2022/12/30 13:31:28;;;;;;;;;;;;;;;16.10;50.49;101567.88;5094947;28;1980;-46
2022/12/30 13:33:59;;;;;;;;;;;;;;;15.79;51.35;101559.16;5095567;28;1106;-44
2022/12/30 13:36:24;;;;;;;;;;;;;;;15.65;51.50;101558.63;5095818;28;1173;-45
2022/12/30 13:38:55;;;;;;;;;;;;;;;16.83;48.80;101565.03;5095696;28;1073;-43
2022/12/30 13:41:20;;;;;;;;;;;;;;;16.61;49.08;101557.63;5094212;28;1238;-43
2022/12/30 13:43:50;;;;;;;;;;;;;;;16.05;50.60;101560.41;5096227;28;1110;-47
2022/12/30 13:46:36;;;;;;;;;;;;;;;15.74;51.30;101566.19;5093088;28;1130;-44
2022/12/30 13:49:04;;;;;;;;;;;;;;;15.62;52.04;101562.69;5094834;28;1317;-41
2022/12/30 13:51:29;;;;;;;;;;;;;;;17.18;47.99;101563.81;5094929;28;2354;-42